Time;durP1;ratioP1;P1;durP2;ratioP2;P2;SDS_P1;SDS_P2;PMS_P1;PMS_P2;Temp;Humidity;BMP_temperature;BMP_pressure;BME280_temperature;BME280_humidity;BME280_pressure;Samples;Min_cycle;Max_cycle;Signal;HPM_P1;HPM_P2
2023/03/21 19:53:51;;;;;;;;;;;;;;;12.11;73.90;97911.44;5062106;28;20282;-65
2023/03/21 19:56:16;;;;;;;;;;;;;;;12.10;73.98;97915.00;5069049;28;19970;-65
2023/03/21 19:58:41;;;;;;;;;;;;;;;12.04;74.40;97912.00;5069240;28;19921;-65
2023/03/21 20:01:08;;;;;;;;;;;;;;;12.10;73.79;97920.25;5068972;28;19916;-65
2023/03/21 20:03:33;;;;;;;;;;;;;;;12.11;73.64;97916.69;5088641;28;19917;-65
2023/03/21 20:06:07;;;;;;;;;;;;;;;12.08;73.29;97922.19;5048829;28;19971;-65
2023/03/21 20:08:32;;;;;;;;;;;;;;;12.05;73.56;97930.31;5053372;28;19917;-65
2023/03/21 20:10:57;;;;;;;;;;;;;;;12.03;73.80;97929.59;5048920;28;19963;-65
2023/03/21 20:13:23;;;;;;;;;;;;;;;12.00;74.31;97927.19;5051766;28;20434;-65
2023/03/21 20:15:48;;;;;;;;;;;;;;;11.99;74.39;97932.59;5049420;28;20438;-65
2023/03/21 20:18:13;;;;;;;;;;;;;;;12.00;74.24;97923.72;5055413;28;19913;-65
2023/03/21 20:20:38;;;;;;;;;;;;;;;12.00;74.47;97924.56;5048150;28;19917;-65
2023/03/21 20:23:04;;;;;;;;;;;;;;;11.99;74.47;97922.06;5047634;28;19913;-65
2023/03/21 20:25:30;;;;;;;;;;;;;;;11.97;75.35;97916.91;5048513;28;19924;-65
2023/03/21 20:27:55;;;;;;;;;;;;;;;11.97;75.87;97916.09;5048748;28;19913;-65
2023/03/21 20:30:20;;;;;;;;;;;;;;;11.96;76.42;97923.13;5052495;28;20376;-65
2023/03/21 20:32:45;;;;;;;;;;;;;;;11.96;76.30;97917.06;5049442;28;19921;-65
2023/03/21 20:35:12;;;;;;;;;;;;;;;11.96;77.26;97910.00;5034780;28;20358;-65
2023/03/21 20:37:37;;;;;;;;;;;;;;;11.96;77.32;97912.63;5044342;28;19917;-65
2023/03/21 20:40:09;;;;;;;;;;;;;;;11.95;78.00;97915.38;5050798;28;20019;-65
2023/03/21 20:42:38;;;;;;;;;;;;;;;11.93;77.73;97912.03;5054428;28;20007;-65
2023/03/21 20:45:03;;;;;;;;;;;;;;;11.92;77.32;97903.31;5044752;28;20408;-66
2023/03/21 20:47:28;;;;;;;;;;;;;;;11.92;77.11;97895.44;5036611;28;19925;-65
2023/03/21 20:49:55;;;;;;;;;;;;;;;11.89;77.93;97908.81;5041637;28;20396;-65
2023/03/21 20:52:21;;;;;;;;;;;;;;;11.88;77.32;97930.81;5046412;28;19921;-65
2023/03/21 20:54:46;;;;;;;;;;;;;;;11.82;76.07;97925.97;5051874;28;19999;-65
2023/03/21 20:57:11;;;;;;;;;;;;;;;11.75;76.62;97932.69;5048457;28;20347;-66
2023/03/21 20:59:37;;;;;;;;;;;;;;;11.70;76.46;97927.78;5058692;28;20012;-66
2023/03/21 21:02:02;;;;;;;;;;;;;;;11.72;77.17;97935.53;5067840;28;20368;-66
2023/03/21 21:04:31;;;;;;;;;;;;;;;11.64;77.45;97944.84;5055216;28;20374;-65
2023/03/21 21:06:57;;;;;;;;;;;;;;;12.90;76.94;97948.00;5039519;28;19917;-65
2023/03/21 21:09:22;;;;;;;;;;;;;;;14.74;69.40;97942.00;5043681;28;20460;-66
2023/03/21 21:11:48;;;;;;;;;;;;;;;14.34;67.72;97941.06;5036813;28;19960;-65
2023/03/21 21:14:13;;;;;;;;;;;;;;;13.73;69.73;97943.78;5025892;28;19957;-65
2023/03/21 21:16:39;;;;;;;;;;;;;;;13.29;71.16;97941.28;5048757;28;19968;-65
2023/03/21 21:19:04;;;;;;;;;;;;;;;13.01;72.58;97948.00;5018449;28;19924;-65
2023/03/21 21:21:30;;;;;;;;;;;;;;;12.73;73.58;97945.91;5033065;28;19968;-66
2023/03/21 21:23:55;;;;;;;;;;;;;;;12.54;74.27;97952.69;5039653;28;19913;-66
2023/03/21 21:26:20;;;;;;;;;;;;;;;12.42;75.30;97952.81;5031901;28;20264;-65
2023/03/21 21:28:46;;;;;;;;;;;;;;;12.28;76.62;97954.75;5045954;28;19999;-64
2023/03/21 21:31:15;;;;;;;;;;;;;;;12.17;76.71;97956.56;5033063;28;20024;-64
2023/03/21 21:33:40;;;;;;;;;;;;;;;12.09;77.04;97955.41;5077763;28;19955;-65
2023/03/21 21:36:07;;;;;;;;;;;;;;;12.05;77.68;97959.22;5033441;28;19964;-66
2023/03/21 21:38:33;;;;;;;;;;;;;;;12.02;78.65;97954.19;5036343;28;19959;-66
2023/03/21 21:40:59;;;;;;;;;;;;;;;12.00;78.77;97961.34;5044055;28;20393;-66
2023/03/21 21:43:24;;;;;;;;;;;;;;;11.99;78.48;97951.81;5063672;28;19913;-65
2023/03/21 21:45:50;;;;;;;;;;;;;;;11.95;77.97;97958.28;5052521;28;20336;-66
2023/03/21 21:48:15;;;;;;;;;;;;;;;11.91;79.37;97951.59;5053895;28;19913;-66
2023/03/21 21:50:41;;;;;;;;;;;;;;;11.94;79.12;97955.75;5050477;28;19935;-66
2023/03/21 21:53:06;;;;;;;;;;;;;;;11.94;78.99;97951.34;5044502;28;19927;-66
2023/03/21 21:55:32;;;;;;;;;;;;;;;11.93;79.18;97954.09;5053392;28;20019;-65
2023/03/21 21:57:57;;;;;;;;;;;;;;;11.95;79.40;97957.44;5052561;28;20049;-65
2023/03/21 22:00:23;;;;;;;;;;;;;;;11.93;78.62;97952.28;5053404;28;19917;-66
2023/03/21 22:02:49;;;;;;;;;;;;;;;11.93;78.85;97948.81;5043823;28;19917;-66
2023/03/21 22:05:15;;;;;;;;;;;;;;;11.87;78.42;97939.63;5053385;28;19913;-65
2023/03/21 22:07:40;;;;;;;;;;;;;;;11.88;78.43;97943.94;5047369;28;19925;-65
2023/03/21 22:10:06;;;;;;;;;;;;;;;11.91;78.33;97941.06;5052209;28;19919;-66
2023/03/21 22:12:31;;;;;;;;;;;;;;;11.90;78.17;97938.56;5041725;28;19921;-66
2023/03/21 22:14:56;;;;;;;;;;;;;;;11.91;77.83;97940.25;5041185;28;19948;-65
2023/03/21 22:17:21;;;;;;;;;;;;;;;11.92;77.87;97934.84;5053052;28;19942;-66
2023/03/21 22:19:46;;;;;;;;;;;;;;;11.91;78.27;97930.56;5042361;28;20366;-65
2023/03/21 22:22:12;;;;;;;;;;;;;;;11.92;78.56;97921.72;5035934;28;20463;-65
2023/03/21 22:24:37;;;;;;;;;;;;;;;11.93;78.50;97926.00;5027267;28;20333;-65
2023/03/21 22:27:02;;;;;;;;;;;;;;;11.90;78.07;97926.25;5036317;28;20421;-66
2023/03/21 22:29:28;;;;;;;;;;;;;;;11.90;78.30;97920.97;5039593;28;19916;-66
2023/03/21 22:31:53;;;;;;;;;;;;;;;11.88;78.67;97909.78;5032799;28;19932;-66
2023/03/21 22:34:20;;;;;;;;;;;;;;;11.88;78.70;97901.91;5039786;28;19917;-66
2023/03/21 22:36:45;;;;;;;;;;;;;;;11.86;78.86;97906.41;5043721;28;19918;-66
2023/03/21 22:39:11;;;;;;;;;;;;;;;11.79;78.50;97910.44;5035130;28;20004;-66
2023/03/21 22:41:36;;;;;;;;;;;;;;;11.69;79.43;97912.97;5036326;28;19947;-66
2023/03/21 22:44:01;;;;;;;;;;;;;;;11.69;78.64;97912.97;5035464;28;19968;-65
2023/03/21 22:46:26;;;;;;;;;;;;;;;11.65;78.12;97915.00;5038529;28;19944;-66
2023/03/21 22:48:52;;;;;;;;;;;;;;;11.67;79.35;97919.31;5035193;28;19991;-65
2023/03/21 22:51:17;;;;;;;;;;;;;;;11.65;78.86;97922.88;5041232;28;19920;-66
2023/03/21 22:53:42;;;;;;;;;;;;;;;11.62;78.50;97925.72;5035517;28;19925;-64
2023/03/21 22:56:07;;;;;;;;;;;;;;;11.64;78.54;97918.56;5035193;28;19924;-66
2023/03/21 22:58:33;;;;;;;;;;;;;;;11.65;78.07;97922.03;5033037;28;19921;-66
2023/03/21 23:01:01;;;;;;;;;;;;;;;11.64;78.90;97921.19;5036040;28;19920;-66
2023/03/21 23:03:26;;;;;;;;;;;;;;;11.65;78.52;97915.00;5049353;28;20023;-66
2023/03/21 23:05:52;;;;;;;;;;;;;;;11.67;78.50;97922.75;5039643;28;19928;-66
2023/03/21 23:08:17;;;;;;;;;;;;;;;11.62;78.42;97925.72;5052429;28;19919;-65
2023/03/21 23:10:44;;;;;;;;;;;;;;;11.65;78.68;97924.66;5052338;28;19916;-66
2023/03/21 23:13:10;;;;;;;;;;;;;;;11.63;78.55;97919.53;5052301;28;19924;-66
2023/03/21 23:15:37;;;;;;;;;;;;;;;11.59;78.76;97922.50;5039743;28;19920;-66
2023/03/21 23:18:02;;;;;;;;;;;;;;;11.61;78.97;97918.81;5052237;28;20332;-66
2023/03/21 23:20:27;;;;;;;;;;;;;;;11.60;78.74;97919.78;5052370;28;19913;-65
2023/03/21 23:22:53;;;;;;;;;;;;;;;11.57;78.80;97914.75;5051020;28;20374;-66
2023/03/21 23:25:19;;;;;;;;;;;;;;;11.56;77.98;97925.38;5048599;28;20360;-66
2023/03/21 23:27:44;;;;;;;;;;;;;;;11.53;79.14;97925.63;5051780;28;19913;-65
2023/03/21 23:30:10;;;;;;;;;;;;;;;11.50;79.34;97926.69;5042101;28;19920;-66
2023/03/21 23:32:35;;;;;;;;;;;;;;;11.53;79.00;97923.84;5032841;28;19923;-65
2023/03/21 23:35:00;;;;;;;;;;;;;;;11.54;78.74;97917.63;5030482;28;19917;-66
2023/03/21 23:37:28;;;;;;;;;;;;;;;11.55;78.87;97914.03;5060621;28;20293;-66
2023/03/21 23:39:54;;;;;;;;;;;;;;;11.53;78.46;97926.47;5038238;28;19921;-65
2023/03/21 23:42:20;;;;;;;;;;;;;;;11.55;78.71;97915.81;5040892;28;20000;-65
2023/03/21 23:44:45;;;;;;;;;;;;;;;11.54;79.02;97916.78;5038615;28;19924;-65
2023/03/21 23:47:10;;;;;;;;;;;;;;;11.53;78.67;97909.88;5034050;28;19917;-66
2023/03/21 23:49:39;;;;;;;;;;;;;;;11.51;78.84;97907.34;5031568;28;19916;-66
2023/03/21 23:52:04;;;;;;;;;;;;;;;11.49;78.47;97917.13;5032590;28;19921;-66
2023/03/21 23:54:30;;;;;;;;;;;;;;;11.44;78.09;97911.41;5030701;28;19921;-66
2023/03/21 23:56:55;;;;;;;;;;;;;;;11.38;77.46;97906.59;5035565;28;20409;-66
2023/03/21 23:59:20;;;;;;;;;;;;;;;11.36;77.96;97908.53;5039018;28;19924;-65
